sensor_id;sensor_type;location;lat;lon;timestamp;temperature;humidity
70475;DHT22;57944;48.722;9.316;2023-07-09T07:30:36;40.10;58.80
70475;DHT22;57944;48.722;9.316;2023-07-09T07:33:06;40.20;59.20
70475;DHT22;57944;48.722;9.316;2023-07-09T07:35:37;40.50;58.30
70475;DHT22;57944;48.722;9.316;2023-07-09T07:38:27;40.40;58.30
70475;DHT22;57944;48.722;9.316;2023-07-09T07:41:00;41.00;57.30
70475;DHT22;57944;48.722;9.316;2023-07-09T07:43:31;41.70;56.20
70475;DHT22;57944;48.722;9.316;2023-07-09T07:46:01;41.40;55.60
70475;DHT22;57944;48.722;9.316;2023-07-09T07:48:32;41.20;56.20
70475;DHT22;57944;48.722;9.316;2023-07-09T07:51:03;41.20;55.50
70475;DHT22;57944;48.722;9.316;2023-07-09T07:53:34;41.00;55.10
70475;DHT22;57944;48.722;9.316;2023-07-09T07:56:07;41.10;55.00
70475;DHT22;57944;48.722;9.316;2023-07-09T07:58:37;41.20;54.90
70475;DHT22;57944;48.722;9.316;2023-07-09T08:01:08;40.90;54.20
70475;DHT22;57944;48.722;9.316;2023-07-09T08:03:38;40.50;54.60
70475;DHT22;57944;48.722;9.316;2023-07-09T08:06:08;41.70;53.80
70475;DHT22;57944;48.722;9.316;2023-07-09T08:08:39;42.10;53.80
70475;DHT22;57944;48.722;9.316;2023-07-09T08:11:12;42.30;53.10
70475;DHT22;57944;48.722;9.316;2023-07-09T08:13:42;42.80;52.40
70475;DHT22;57944;48.722;9.316;2023-07-09T08:16:13;43.50;51.30
70475;DHT22;57944;48.722;9.316;2023-07-09T08:18:45;43.10;51.60
70475;DHT22;57944;48.722;9.316;2023-07-09T08:21:15;43.50;51.70
70475;DHT22;57944;48.722;9.316;2023-07-09T08:23:45;44.50;51.10
70475;DHT22;57944;48.722;9.316;2023-07-09T08:26:18;44.60;49.90
70475;DHT22;57944;48.722;9.316;2023-07-09T08:28:51;44.70;49.30
70475;DHT22;57944;48.722;9.316;2023-07-09T08:31:21;45.50;48.70
70475;DHT22;57944;48.722;9.316;2023-07-09T08:33:51;45.70;47.40
70475;DHT22;57944;48.722;9.316;2023-07-09T08:36:22;45.50;47.40
70475;DHT22;57944;48.722;9.316;2023-07-09T08:38:56;46.10;46.70
70475;DHT22;57944;48.722;9.316;2023-07-09T08:41:37;46.10;46.10
70475;DHT22;57944;48.722;9.316;2023-07-09T08:44:31;45.10;46.40
70475;DHT22;57944;48.722;9.316;2023-07-09T08:47:15;45.30;47.20
70475;DHT22;57944;48.722;9.316;2023-07-09T08:49:56;45.40;46.30
70475;DHT22;57944;48.722;9.316;2023-07-09T08:52:33;45.90;45.90
70475;DHT22;57944;48.722;9.316;2023-07-09T08:55:10;44.90;45.30
70475;DHT22;57944;48.722;9.316;2023-07-09T08:57:47;45.50;45.50
70475;DHT22;57944;48.722;9.316;2023-07-09T09:00:28;45.80;45.30
70475;DHT22;57944;48.722;9.316;2023-07-09T09:47:04;48.40;36.00
70475;DHT22;57944;48.722;9.316;2023-07-09T09:49:39;49.40;35.90
70475;DHT22;57944;48.722;9.316;2023-07-09T09:52:13;49.20;34.90
70475;DHT22;57944;48.722;9.316;2023-07-09T09:54:50;49.40;34.80
70475;DHT22;57944;48.722;9.316;2023-07-09T09:57:24;47.40;35.10
70475;DHT22;57944;48.722;9.316;2023-07-09T09:59:58;48.60;35.30
70475;DHT22;57944;48.722;9.316;2023-07-09T10:02:39;49.40;34.60
70475;DHT22;57944;48.722;9.316;2023-07-09T10:05:13;49.40;35.30
70475;DHT22;57944;48.722;9.316;2023-07-09T10:07:51;49.70;34.70
70475;DHT22;57944;48.722;9.316;2023-07-09T10:10:30;49.60;34.10
70475;DHT22;57944;48.722;9.316;2023-07-09T10:13:09;50.30;33.70
70475;DHT22;57944;48.722;9.316;2023-07-09T10:16:02;50.20;33.50
70475;DHT22;57944;48.722;9.316;2023-07-09T10:18:45;49.60;33.10
70475;DHT22;57944;48.722;9.316;2023-07-09T10:21:27;49.40;33.60
70475;DHT22;57944;48.722;9.316;2023-07-09T10:24:11;49.40;33.50
70475;DHT22;57944;48.722;9.316;2023-07-09T10:26:59;47.00;35.20
70475;DHT22;57944;48.722;9.316;2023-07-09T10:29:50;46.30;35.40
70475;DHT22;57944;48.722;9.316;2023-07-09T10:32:59;45.00;35.60
70475;DHT22;57944;48.722;9.316;2023-07-09T10:35:42;45.60;35.30
70475;DHT22;57944;48.722;9.316;2023-07-09T10:38:38;45.10;34.40
70475;DHT22;57944;48.722;9.316;2023-07-09T10:41:18;45.40;34.30
70475;DHT22;57944;48.722;9.316;2023-07-09T10:43:57;46.30;33.90
70475;DHT22;57944;48.722;9.316;2023-07-09T10:46:35;48.50;33.30
70475;DHT22;57944;48.722;9.316;2023-07-09T10:49:14;49.60;32.40
70475;DHT22;57944;48.722;9.316;2023-07-09T10:51:50;50.20;31.70
70475;DHT22;57944;48.722;9.316;2023-07-09T10:54:29;49.50;31.50
70475;DHT22;57944;48.722;9.316;2023-07-09T10:57:09;48.10;31.90
70475;DHT22;57944;48.722;9.316;2023-07-09T10:59:48;47.10;32.60
70475;DHT22;57944;48.722;9.316;2023-07-09T11:02:23;45.00;32.70
70475;DHT22;57944;48.722;9.316;2023-07-09T11:04:59;45.40;32.60
70475;DHT22;57944;48.722;9.316;2023-07-09T11:07:33;46.20;32.50
70475;DHT22;57944;48.722;9.316;2023-07-09T11:10:21;47.30;30.70
70475;DHT22;57944;48.722;9.316;2023-07-09T11:12:59;47.10;28.40
70475;DHT22;57944;48.722;9.316;2023-07-09T11:15:35;46.70;28.60
70475;DHT22;57944;48.722;9.316;2023-07-09T11:18:13;47.30;29.30
70475;DHT22;57944;48.722;9.316;2023-07-09T11:21:00;46.60;29.90
70475;DHT22;57944;48.722;9.316;2023-07-09T11:23:45;46.70;29.70
70475;DHT22;57944;48.722;9.316;2023-07-09T11:26:23;45.90;30.20
70475;DHT22;57944;48.722;9.316;2023-07-09T11:29:08;46.00;28.70
70475;DHT22;57944;48.722;9.316;2023-07-09T11:31:45;44.60;28.80
70475;DHT22;57944;48.722;9.316;2023-07-09T11:34:18;44.30;29.10
70475;DHT22;57944;48.722;9.316;2023-07-09T11:36:57;43.80;28.70
70475;DHT22;57944;48.722;9.316;2023-07-09T11:39:30;44.30;28.70
70475;DHT22;57944;48.722;9.316;2023-07-09T11:42:27;44.50;28.40
70475;DHT22;57944;48.722;9.316;2023-07-09T11:45:08;46.20;29.40
70475;DHT22;57944;48.722;9.316;2023-07-09T11:47:43;47.20;28.60
70475;DHT22;57944;48.722;9.316;2023-07-09T11:50:23;48.40;27.70
70475;DHT22;57944;48.722;9.316;2023-07-09T11:53:02;49.40;27.10
70475;DHT22;57944;48.722;9.316;2023-07-09T11:55:40;50.40;26.90
70475;DHT22;57944;48.722;9.316;2023-07-09T11:58:13;49.80;27.70
70475;DHT22;57944;48.722;9.316;2023-07-09T12:00:47;49.30;27.90
70475;DHT22;57944;48.722;9.316;2023-07-09T12:03:23;48.70;27.90
70475;DHT22;57944;48.722;9.316;2023-07-09T12:06:00;47.80;28.30
70475;DHT22;57944;48.722;9.316;2023-07-09T12:08:37;48.10;28.50
70475;DHT22;57944;48.722;9.316;2023-07-09T12:11:21;48.10;29.30
70475;DHT22;57944;48.722;9.316;2023-07-09T12:13:54;47.00;29.60
70475;DHT22;57944;48.722;9.316;2023-07-09T12:16:33;46.80;30.00
70475;DHT22;57944;48.722;9.316;2023-07-09T12:19:06;47.80;29.00
70475;DHT22;57944;48.722;9.316;2023-07-09T12:21:39;47.10;28.80
70475;DHT22;57944;48.722;9.316;2023-07-09T12:24:20;44.90;29.10
70475;DHT22;57944;48.722;9.316;2023-07-09T12:26:54;44.20;31.00
70475;DHT22;57944;48.722;9.316;2023-07-09T12:29:26;43.30;31.70
70475;DHT22;57944;48.722;9.316;2023-07-09T12:31:58;43.30;31.80
70475;DHT22;57944;48.722;9.316;2023-07-09T12:34:30;43.30;31.50
70475;DHT22;57944;48.722;9.316;2023-07-09T12:37:01;44.00;30.90
70475;DHT22;57944;48.722;9.316;2023-07-09T12:39:34;44.30;31.30
70475;DHT22;57944;48.722;9.316;2023-07-09T12:42:14;45.00;31.00
70475;DHT22;57944;48.722;9.316;2023-07-09T12:44:47;45.30;30.70
70475;DHT22;57944;48.722;9.316;2023-07-09T12:47:19;46.70;29.60
70475;DHT22;57944;48.722;9.316;2023-07-09T12:50:17;47.80;29.20
70475;DHT22;57944;48.722;9.316;2023-07-09T12:52:49;48.00;28.90
70475;DHT22;57944;48.722;9.316;2023-07-09T12:55:24;48.10;29.20
70475;DHT22;57944;48.722;9.316;2023-07-09T12:57:59;49.00;29.10
70475;DHT22;57944;48.722;9.316;2023-07-09T13:00:31;49.50;28.70
70475;DHT22;57944;48.722;9.316;2023-07-09T13:03:02;50.00;28.70
70475;DHT22;57944;48.722;9.316;2023-07-09T13:05:32;49.90;28.20
70475;DHT22;57944;48.722;9.316;2023-07-09T13:08:03;49.80;28.10
70475;DHT22;57944;48.722;9.316;2023-07-09T13:10:40;49.90;28.00
70475;DHT22;57944;48.722;9.316;2023-07-09T13:13:13;50.70;28.00
70475;DHT22;57944;48.722;9.316;2023-07-09T13:15:47;48.90;28.40
70475;DHT22;57944;48.722;9.316;2023-07-09T13:18:22;48.50;28.60
70475;DHT22;57944;48.722;9.316;2023-07-09T13:20:54;48.70;28.10
70475;DHT22;57944;48.722;9.316;2023-07-09T13:23:28;48.90;28.30
70475;DHT22;57944;48.722;9.316;2023-07-09T13:26:02;48.20;28.50
70475;DHT22;57944;48.722;9.316;2023-07-09T13:28:32;47.00;28.80
70475;DHT22;57944;48.722;9.316;2023-07-09T13:31:10;45.00;29.50
70475;DHT22;57944;48.722;9.316;2023-07-09T13:33:44;45.40;29.90
70475;DHT22;57944;48.722;9.316;2023-07-09T13:36:19;45.50;30.00
70475;DHT22;57944;48.722;9.316;2023-07-09T13:38:50;45.80;29.80
70475;DHT22;57944;48.722;9.316;2023-07-09T13:41:24;46.30;29.70
70475;DHT22;57944;48.722;9.316;2023-07-09T13:43:55;46.80;29.40
70475;DHT22;57944;48.722;9.316;2023-07-09T13:46:25;46.80;29.20
70475;DHT22;57944;48.722;9.316;2023-07-09T13:48:56;47.10;29.00
70475;DHT22;57944;48.722;9.316;2023-07-09T13:51:29;47.10;28.80
70475;DHT22;57944;48.722;9.316;2023-07-09T13:53:59;47.00;28.80
70475;DHT22;57944;48.722;9.316;2023-07-09T13:56:33;47.30;29.20
70475;DHT22;57944;48.722;9.316;2023-07-09T13:59:13;48.30;28.40
70475;DHT22;57944;48.722;9.316;2023-07-09T14:01:45;47.70;28.20
70475;DHT22;57944;48.722;9.316;2023-07-09T14:04:18;46.20;28.50
70475;DHT22;57944;48.722;9.316;2023-07-09T14:06:49;44.90;29.40
70475;DHT22;57944;48.722;9.316;2023-07-09T14:09:20;42.80;31.60
70475;DHT22;57944;48.722;9.316;2023-07-09T14:11:53;41.80;33.00
70475;DHT22;57944;48.722;9.316;2023-07-09T14:14:29;42.40;32.40
70475;DHT22;57944;48.722;9.316;2023-07-09T14:17:02;43.70;32.40
70475;DHT22;57944;48.722;9.316;2023-07-09T14:19:33;44.00;31.70
70475;DHT22;57944;48.722;9.316;2023-07-09T14:22:21;45.50;31.30
70475;DHT22;57944;48.722;9.316;2023-07-09T14:24:57;45.40;30.40
70475;DHT22;57944;48.722;9.316;2023-07-09T14:27:31;44.00;31.50
70475;DHT22;57944;48.722;9.316;2023-07-09T14:30:02;43.50;31.30
70475;DHT22;57944;48.722;9.316;2023-07-09T14:32:35;43.80;31.50
70475;DHT22;57944;48.722;9.316;2023-07-09T14:35:12;43.60;31.70
70475;DHT22;57944;48.722;9.316;2023-07-09T14:37:45;42.10;31.80
70475;DHT22;57944;48.722;9.316;2023-07-09T14:40:19;41.20;32.90
70475;DHT22;57944;48.722;9.316;2023-07-09T14:42:53;40.90;32.80
70475;DHT22;57944;48.722;9.316;2023-07-09T14:45:24;41.50;32.70
70475;DHT22;57944;48.722;9.316;2023-07-09T14:47:56;41.90;32.50
70475;DHT22;57944;48.722;9.316;2023-07-09T14:50:27;42.00;32.10
70475;DHT22;57944;48.722;9.316;2023-07-09T14:52:58;42.30;31.80
70475;DHT22;57944;48.722;9.316;2023-07-09T14:55:28;43.10;31.20
70475;DHT22;57944;48.722;9.316;2023-07-09T14:58:18;43.30;31.10
70475;DHT22;57944;48.722;9.316;2023-07-09T15:00:50;43.60;30.20
70475;DHT22;57944;48.722;9.316;2023-07-09T15:03:23;44.00;30.00
70475;DHT22;57944;48.722;9.316;2023-07-09T15:05:56;44.90;29.80
70475;DHT22;57944;48.722;9.316;2023-07-09T15:08:28;45.60;28.80
70475;DHT22;57944;48.722;9.316;2023-07-09T15:11:00;45.70;29.00
70475;DHT22;57944;48.722;9.316;2023-07-09T15:13:35;44.90;29.40
70475;DHT22;57944;48.722;9.316;2023-07-09T15:16:06;44.70;29.60
70475;DHT22;57944;48.722;9.316;2023-07-09T15:18:38;45.20;29.00
70475;DHT22;57944;48.722;9.316;2023-07-09T15:21:09;44.60;29.20
70475;DHT22;57944;48.722;9.316;2023-07-09T15:23:41;44.50;29.10
70475;DHT22;57944;48.722;9.316;2023-07-09T15:26:13;45.00;29.10
70475;DHT22;57944;48.722;9.316;2023-07-09T15:28:47;45.10;29.00
70475;DHT22;57944;48.722;9.316;2023-07-09T15:31:18;45.20;29.30
70475;DHT22;57944;48.722;9.316;2023-07-09T15:33:48;45.20;28.80
70475;DHT22;57944;48.722;9.316;2023-07-09T15:36:18;44.70;28.70
70475;DHT22;57944;48.722;9.316;2023-07-09T15:38:49;44.00;29.00
70475;DHT22;57944;48.722;9.316;2023-07-09T15:41:19;43.00;29.30
70475;DHT22;57944;48.722;9.316;2023-07-09T15:43:52;42.00;29.90
70475;DHT22;57944;48.722;9.316;2023-07-09T15:46:22;41.10;30.80
70475;DHT22;57944;48.722;9.316;2023-07-09T15:48:54;40.70;31.20
70475;DHT22;57944;48.722;9.316;2023-07-09T15:51:25;40.80;31.40
70475;DHT22;57944;48.722;9.316;2023-07-09T15:53:56;41.00;31.70
70475;DHT22;57944;48.722;9.316;2023-07-09T15:56:27;41.00;31.30
70475;DHT22;57944;48.722;9.316;2023-07-09T15:59:03;41.10;30.90
70475;DHT22;57944;48.722;9.316;2023-07-09T16:01:35;40.80;31.10
70475;DHT22;57944;48.722;9.316;2023-07-09T16:04:08;40.80;30.90
70475;DHT22;57944;48.722;9.316;2023-07-09T16:06:39;41.10;31.20
70475;DHT22;57944;48.722;9.316;2023-07-09T16:09:10;41.00;31.10
70475;DHT22;57944;48.722;9.316;2023-07-09T16:11:43;40.80;31.40
70475;DHT22;57944;48.722;9.316;2023-07-09T16:14:22;40.60;31.20
70475;DHT22;57944;48.722;9.316;2023-07-09T16:16:56;40.40;31.80
70475;DHT22;57944;48.722;9.316;2023-07-09T16:19:30;40.20;31.80
70475;DHT22;57944;48.722;9.316;2023-07-09T16:22:02;40.00;32.00
70475;DHT22;57944;48.722;9.316;2023-07-09T16:24:35;39.80;31.50
70475;DHT22;57944;48.722;9.316;2023-07-09T16:27:06;39.90;30.80
70475;DHT22;57944;48.722;9.316;2023-07-09T16:29:49;39.90;31.90
70475;DHT22;57944;48.722;9.316;2023-07-09T16:32:20;39.70;32.70
70475;DHT22;57944;48.722;9.316;2023-07-09T16:34:50;39.60;31.60
70475;DHT22;57944;48.722;9.316;2023-07-09T16:37:22;39.50;31.90
70475;DHT22;57944;48.722;9.316;2023-07-09T16:39:53;39.20;31.90
70475;DHT22;57944;48.722;9.316;2023-07-09T16:42:24;39.00;32.40
70475;DHT22;57944;48.722;9.316;2023-07-09T16:44:57;38.40;33.10
70475;DHT22;57944;48.722;9.316;2023-07-09T16:47:27;38.20;33.20
70475;DHT22;57944;48.722;9.316;2023-07-09T16:49:59;37.90;33.20
70475;DHT22;57944;48.722;9.316;2023-07-09T16:52:30;37.60;33.70
70475;DHT22;57944;48.722;9.316;2023-07-09T16:55:00;37.50;34.00
70475;DHT22;57944;48.722;9.316;2023-07-09T16:57:32;37.50;34.20
70475;DHT22;57944;48.722;9.316;2023-07-09T17:00:21;37.40;33.70
70475;DHT22;57944;48.722;9.316;2023-07-09T17:02:55;37.40;34.30
70475;DHT22;57944;48.722;9.316;2023-07-09T17:05:30;37.30;34.00
70475;DHT22;57944;48.722;9.316;2023-07-09T17:08:02;37.30;34.60
70475;DHT22;57944;48.722;9.316;2023-07-09T17:10:33;37.30;34.30
70475;DHT22;57944;48.722;9.316;2023-07-09T17:13:03;37.40;34.50
70475;DHT22;57944;48.722;9.316;2023-07-09T17:15:39;37.30;34.00
70475;DHT22;57944;48.722;9.316;2023-07-09T17:18:20;37.20;34.20
70475;DHT22;57944;48.722;9.316;2023-07-09T17:20:54;37.10;34.50
70475;DHT22;57944;48.722;9.316;2023-07-09T17:23:27;37.10;34.80
70475;DHT22;57944;48.722;9.316;2023-07-09T17:25:58;37.30;35.20
70475;DHT22;57944;48.722;9.316;2023-07-09T17:28:30;37.50;35.00
70475;DHT22;57944;48.722;9.316;2023-07-09T17:31:03;37.60;35.40
70475;DHT22;57944;48.722;9.316;2023-07-09T17:33:35;38.10;34.50
70475;DHT22;57944;48.722;9.316;2023-07-09T17:36:10;39.10;33.10
70475;DHT22;57944;48.722;9.316;2023-07-09T17:38:46;39.90;32.10
70475;DHT22;57944;48.722;9.316;2023-07-09T17:41:17;40.40;31.60
70475;DHT22;57944;48.722;9.316;2023-07-09T17:43:47;40.60;31.20
70475;DHT22;57944;48.722;9.316;2023-07-09T17:46:20;40.80;31.40
70475;DHT22;57944;48.722;9.316;2023-07-09T17:48:50;40.80;30.90
70475;DHT22;57944;48.722;9.316;2023-07-09T17:51:21;40.10;30.70
70475;DHT22;57944;48.722;9.316;2023-07-09T17:53:51;40.10;31.40
70475;DHT22;57944;48.722;9.316;2023-07-09T17:56:22;39.80;31.10
70475;DHT22;57944;48.722;9.316;2023-07-09T17:58:56;39.50;32.10
70475;DHT22;57944;48.722;9.316;2023-07-09T18:01:29;38.90;33.00
70475;DHT22;57944;48.722;9.316;2023-07-09T18:04:00;38.20;34.00
70475;DHT22;57944;48.722;9.316;2023-07-09T18:06:30;37.80;34.00
70475;DHT22;57944;48.722;9.316;2023-07-09T18:09:01;37.30;34.40
70475;DHT22;57944;48.722;9.316;2023-07-09T18:11:31;37.00;35.40
70475;DHT22;57944;48.722;9.316;2023-07-09T18:14:07;36.80;36.20
70475;DHT22;57944;48.722;9.316;2023-07-09T18:16:49;36.50;36.90
70475;DHT22;57944;48.722;9.316;2023-07-09T18:19:23;36.30;36.40
70475;DHT22;57944;48.722;9.316;2023-07-09T18:21:58;36.00;39.20
70475;DHT22;57944;48.722;9.316;2023-07-09T18:24:30;35.60;39.10
70475;DHT22;57944;48.722;9.316;2023-07-09T18:27:00;35.40;40.50
70475;DHT22;57944;48.722;9.316;2023-07-09T18:29:32;35.00;41.00
70475;DHT22;57944;48.722;9.316;2023-07-09T18:32:14;34.70;41.40
70475;DHT22;57944;48.722;9.316;2023-07-09T18:34:47;34.40;41.30
70475;DHT22;57944;48.722;9.316;2023-07-09T18:37:17;34.20;42.00
70475;DHT22;57944;48.722;9.316;2023-07-09T18:39:49;34.20;42.10
70475;DHT22;57944;48.722;9.316;2023-07-09T18:42:21;34.20;42.10
70475;DHT22;57944;48.722;9.316;2023-07-09T18:44:52;34.10;43.30
70475;DHT22;57944;48.722;9.316;2023-07-09T18:47:25;33.90;45.00
70475;DHT22;57944;48.722;9.316;2023-07-09T18:49:56;33.70;44.20
70475;DHT22;57944;48.722;9.316;2023-07-09T18:52:27;33.50;44.80
70475;DHT22;57944;48.722;9.316;2023-07-09T18:54:59;33.20;46.10
70475;DHT22;57944;48.722;9.316;2023-07-09T18:57:29;32.90;46.30
70475;DHT22;57944;48.722;9.316;2023-07-09T19:00:00;32.50;48.90
70475;DHT22;57944;48.722;9.316;2023-07-09T19:02:33;32.10;49.80
70475;DHT22;57944;48.722;9.316;2023-07-09T19:05:11;31.70;50.10
70475;DHT22;57944;48.722;9.316;2023-07-09T19:07:43;31.40;51.40
70475;DHT22;57944;48.722;9.316;2023-07-09T19:10:18;31.00;51.20
70475;DHT22;57944;48.722;9.316;2023-07-09T19:12:51;30.80;51.70
70475;DHT22;57944;48.722;9.316;2023-07-09T19:15:30;30.60;52.20
70475;DHT22;57944;48.722;9.316;2023-07-09T19:18:10;30.20;52.90
70475;DHT22;57944;48.722;9.316;2023-07-09T19:20:46;29.90;54.30
70475;DHT22;57944;48.722;9.316;2023-07-09T19:23:17;29.70;55.00
70475;DHT22;57944;48.722;9.316;2023-07-09T19:25:51;29.40;55.90
70475;DHT22;57944;48.722;9.316;2023-07-09T19:28:22;29.20;56.40
70475;DHT22;57944;48.722;9.316;2023-07-09T19:30:53;29.00;56.30
70475;DHT22;57944;48.722;9.316;2023-07-09T19:33:33;28.60;56.70
70475;DHT22;57944;48.722;9.316;2023-07-09T19:36:20;28.50;57.60
70475;DHT22;57944;48.722;9.316;2023-07-09T19:38:53;28.40;58.20
70475;DHT22;57944;48.722;9.316;2023-07-09T19:41:24;28.20;58.10
70475;DHT22;57944;48.722;9.316;2023-07-09T19:43:55;28.10;59.40
70475;DHT22;57944;48.722;9.316;2023-07-09T19:46:26;28.00;58.60
70475;DHT22;57944;48.722;9.316;2023-07-09T19:48:59;27.90;58.70
70475;DHT22;57944;48.722;9.316;2023-07-09T19:51:29;27.70;60.30
70475;DHT22;57944;48.722;9.316;2023-07-09T19:54:00;27.50;61.00
70475;DHT22;57944;48.722;9.316;2023-07-09T19:56:30;27.40;61.60
70475;DHT22;57944;48.722;9.316;2023-07-09T19:59:00;27.30;62.70
70475;DHT22;57944;48.722;9.316;2023-07-09T20:01:31;27.10;63.70
70475;DHT22;57944;48.722;9.316;2023-07-09T20:04:04;27.00;65.60
70475;DHT22;57944;48.722;9.316;2023-07-09T20:06:34;27.00;64.40
70475;DHT22;57944;48.722;9.316;2023-07-09T20:09:11;26.90;65.90
70475;DHT22;57944;48.722;9.316;2023-07-09T20:11:51;26.80;68.20
70475;DHT22;57944;48.722;9.316;2023-07-09T20:14:22;26.70;66.90
70475;DHT22;57944;48.722;9.316;2023-07-09T20:16:52;26.60;68.60
70475;DHT22;57944;48.722;9.316;2023-07-09T20:19:25;26.50;68.70
70475;DHT22;57944;48.722;9.316;2023-07-09T20:21:55;26.40;68.80
70475;DHT22;57944;48.722;9.316;2023-07-09T20:24:26;26.40;69.20
70475;DHT22;57944;48.722;9.316;2023-07-09T20:26:57;26.30;71.10
70475;DHT22;57944;48.722;9.316;2023-07-09T20:29:28;26.30;71.40
70475;DHT22;57944;48.722;9.316;2023-07-09T20:31:59;26.10;72.40
70475;DHT22;57944;48.722;9.316;2023-07-09T20:34:31;25.90;73.50
70475;DHT22;57944;48.722;9.316;2023-07-09T20:37:07;25.80;73.80
70475;DHT22;57944;48.722;9.316;2023-07-09T20:39:38;25.80;73.20
70475;DHT22;57944;48.722;9.316;2023-07-09T20:42:10;25.80;73.60
70475;DHT22;57944;48.722;9.316;2023-07-09T20:44:43;25.70;73.50
70475;DHT22;57944;48.722;9.316;2023-07-09T20:47:16;25.60;73.90
70475;DHT22;57944;48.722;9.316;2023-07-09T20:49:52;25.60;73.50
70475;DHT22;57944;48.722;9.316;2023-07-09T20:52:22;25.50;74.70
